createdAt,value
2023-04-22T00:00:17.055Z,12.10
2023-04-22T00:02:45.742Z,12.20
2023-04-22T00:05:16.656Z,12.10
2023-04-22T00:07:47.773Z,12.10
2023-04-22T00:10:17.811Z,12.10
2023-04-22T00:12:46.397Z,12.10
2023-04-22T00:15:15.046Z,12.10
2023-04-22T00:17:46.002Z,12.10
2023-04-22T00:20:15.297Z,12.10
2023-04-22T00:22:43.896Z,12.10
2023-04-22T00:25:12.166Z,12.10
2023-04-22T00:27:42.097Z,12.00
2023-04-22T00:30:11.033Z,12.10
2023-04-22T00:32:39.493Z,12.00
2023-04-22T00:35:08.852Z,12.00
2023-04-22T00:37:37.112Z,12.00
2023-04-22T00:40:06.912Z,12.00
2023-04-22T00:42:35.422Z,12.00
2023-04-22T00:45:05.968Z,12.00
2023-04-22T00:47:34.366Z,12.00
2023-04-22T00:50:03.519Z,12.00
2023-04-22T00:52:32.078Z,12.00
2023-04-22T00:55:00.654Z,12.00
2023-04-22T00:57:30.904Z,12.00
2023-04-22T00:59:59.652Z,12.00
2023-04-22T01:02:29.871Z,12.00
2023-04-22T01:05:00.169Z,12.00
2023-04-22T01:07:28.591Z,12.00
2023-04-22T01:09:57.741Z,12.00
2023-04-22T01:12:26.047Z,12.00
2023-04-22T01:14:54.541Z,12.00
2023-04-22T01:17:24.770Z,12.00
2023-04-22T01:19:55.638Z,12.00
2023-04-22T01:22:25.063Z,11.90
2023-04-22T01:24:55.361Z,11.90
2023-04-22T01:27:23.812Z,11.90
2023-04-22T01:29:53.169Z,12.00
2023-04-22T01:32:22.595Z,12.00
2023-04-22T01:34:51.125Z,11.90
2023-04-22T01:37:20.094Z,11.90
2023-04-22T01:39:49.177Z,11.90
2023-04-22T01:42:19.116Z,11.90
2023-04-22T01:44:47.480Z,11.90
2023-04-22T01:47:16.333Z,11.90
2023-04-22T01:49:44.634Z,11.90
2023-04-22T01:52:14.654Z,11.90
2023-04-22T01:54:43.110Z,11.90
2023-04-22T01:57:14.360Z,11.90
2023-04-22T01:59:44.584Z,11.90
2023-04-22T02:02:12.913Z,11.90
2023-04-22T02:04:41.245Z,11.80
2023-04-22T02:07:09.554Z,11.80
2023-04-22T02:09:39.699Z,11.80
2023-04-22T02:12:08.284Z,11.80
2023-04-22T02:14:36.571Z,11.80
2023-04-22T02:17:06.228Z,11.80
2023-04-22T02:19:34.891Z,11.80
2023-04-22T02:22:03.268Z,11.80
2023-04-22T02:24:31.531Z,11.70
2023-04-22T02:27:00.391Z,11.80
2023-04-22T02:29:31.582Z,11.80
2023-04-22T02:32:00.248Z,11.80
2023-04-22T02:34:30.580Z,11.80
2023-04-22T02:36:59.124Z,11.80
2023-04-22T02:39:27.482Z,11.70
2023-04-22T02:41:58.274Z,11.70
2023-04-22T02:44:26.650Z,11.70
2023-04-22T02:46:55.708Z,11.70
2023-04-22T02:49:24.058Z,11.70
2023-04-22T02:51:58.843Z,11.70
2023-04-22T02:54:27.179Z,11.70
2023-04-22T02:56:55.686Z,11.70
2023-04-22T02:59:24.297Z,11.70
2023-04-22T03:01:55.968Z,11.70
2023-04-22T03:04:54.598Z,11.70
2023-04-22T03:07:24.994Z,11.70
2023-04-22T03:09:54.608Z,11.70
2023-04-22T03:12:22.872Z,11.70
2023-04-22T03:14:51.140Z,11.70
2023-04-22T03:17:21.086Z,11.70
2023-04-22T03:19:49.292Z,11.70
2023-04-22T03:22:17.551Z,11.60
2023-04-22T03:24:47.839Z,11.60
2023-04-22T03:27:16.505Z,11.60
2023-04-22T03:29:45.058Z,11.70
2023-04-22T03:32:13.442Z,11.70
2023-04-22T03:34:41.907Z,11.70
2023-04-22T03:37:11.775Z,11.60
2023-04-22T03:39:40.817Z,11.60
2023-04-22T03:42:12.494Z,11.60
2023-04-22T03:44:43.965Z,11.60
2023-04-22T03:47:12.500Z,11.60
2023-04-22T03:49:47.327Z,11.60
2023-04-22T03:52:16.203Z,11.60
2023-04-22T03:54:52.269Z,11.60
2023-04-22T03:57:21.997Z,11.60
2023-04-22T03:59:50.416Z,11.60
2023-04-22T04:02:18.808Z,11.60
2023-04-22T04:04:47.655Z,11.60
2023-04-22T04:07:16.787Z,11.60
2023-04-22T04:09:45.155Z,11.60
2023-04-22T04:12:13.695Z,11.60
2023-04-22T04:14:47.161Z,11.60
2023-04-22T04:17:19.488Z,11.60
2023-04-22T04:19:48.518Z,11.60
2023-04-22T04:22:16.757Z,11.60
2023-04-22T04:24:52.563Z,11.60
2023-04-22T04:27:24.100Z,11.60
2023-04-22T04:29:57.066Z,11.50
2023-04-22T04:32:38.144Z,11.50
2023-04-22T04:35:10.050Z,11.60
2023-04-22T04:37:40.397Z,11.50
2023-04-22T04:40:12.378Z,11.60
2023-04-22T04:42:55.751Z,11.60
2023-04-22T04:45:29.982Z,11.50
2023-04-22T04:48:00.682Z,11.60
2023-04-22T04:50:35.607Z,11.60
2023-04-22T04:53:04.718Z,11.50
2023-04-22T04:55:40.270Z,11.50
2023-04-22T04:58:15.897Z,11.50
2023-04-22T05:00:45.869Z,11.60
2023-04-22T05:03:15.856Z,11.60
2023-04-22T05:05:46.317Z,11.60
2023-04-22T05:08:14.696Z,11.50
2023-04-22T05:10:45.165Z,11.60
2023-04-22T05:13:14.209Z,11.60
2023-04-22T05:15:47.865Z,11.60
2023-04-22T05:18:16.761Z,11.60
2023-04-22T05:20:45.295Z,11.60
2023-04-22T05:23:14.023Z,11.60
2023-04-22T05:25:42.471Z,11.60
2023-04-22T05:28:14.362Z,11.60
2023-04-22T05:30:51.353Z,11.50
2023-04-22T05:33:19.872Z,11.70
2023-04-22T05:35:48.194Z,11.60
2023-04-22T05:38:16.602Z,11.60
2023-04-22T05:40:46.254Z,11.60
2023-04-22T05:43:16.514Z,11.70
2023-04-22T05:45:51.943Z,11.70
2023-04-22T05:48:22.690Z,11.70
2023-04-22T05:50:59.736Z,11.70
2023-04-22T05:53:30.850Z,11.70
2023-04-22T05:56:01.672Z,11.70
2023-04-22T05:58:29.968Z,11.80
2023-04-22T06:01:04.347Z,11.90
2023-04-22T06:03:51.034Z,11.90
2023-04-22T06:06:19.664Z,11.90
2023-04-22T06:08:48.963Z,11.90
2023-04-22T06:11:17.436Z,11.90
2023-04-22T06:13:45.647Z,11.90
2023-04-22T06:16:15.613Z,12.00
2023-04-22T06:18:44.422Z,12.00
2023-04-22T06:21:13.686Z,12.10
2023-04-22T06:23:42.260Z,12.00
2023-04-22T06:26:10.583Z,12.00
2023-04-22T06:28:39.848Z,12.00
2023-04-22T06:31:16.531Z,12.00
2023-04-22T06:33:45.947Z,12.10
2023-04-22T06:36:15.015Z,12.10
2023-04-22T06:38:45.398Z,12.10
2023-04-22T06:41:33.996Z,12.10
2023-04-22T06:44:09.478Z,12.10
2023-04-22T06:47:08.832Z,12.20
2023-04-22T06:49:47.784Z,12.20
2023-04-22T06:52:25.851Z,12.20
2023-04-22T06:54:58.108Z,12.20
2023-04-22T06:57:26.359Z,12.20
2023-04-22T06:59:54.639Z,12.20
2023-04-22T07:02:26.670Z,12.20
2023-04-22T07:04:54.994Z,12.20
2023-04-22T07:07:23.435Z,12.20
2023-04-22T07:09:51.947Z,12.20
2023-04-22T07:12:20.373Z,12.20
2023-04-22T07:14:50.706Z,12.20
2023-04-22T07:17:22.375Z,12.10
2023-04-22T07:19:52.070Z,12.20
2023-04-22T07:22:20.895Z,12.20
2023-04-22T07:24:49.241Z,12.20
2023-04-22T07:27:17.639Z,12.20
2023-04-22T07:29:46.038Z,12.20
2023-04-22T07:32:14.324Z,12.20
2023-04-22T07:34:42.619Z,12.10
2023-04-22T07:37:12.274Z,12.20
2023-04-22T07:39:41.510Z,12.10
2023-04-22T07:42:10.375Z,12.20
2023-04-22T07:44:39.634Z,12.20
2023-04-22T07:47:08.815Z,12.20
2023-04-22T07:49:37.599Z,12.20
2023-04-22T07:52:06.432Z,12.20
2023-04-22T07:54:36.433Z,12.20
2023-04-22T07:57:05.002Z,12.20
2023-04-22T07:59:33.219Z,12.20
2023-04-22T08:02:01.512Z,12.20
2023-04-22T08:04:29.940Z,12.20
2023-04-22T08:06:58.406Z,12.20
2023-04-22T08:09:26.590Z,12.20
2023-04-22T08:11:56.717Z,12.20
2023-04-22T08:14:25.063Z,12.20
2023-04-22T08:16:53.352Z,12.20
2023-04-22T08:19:21.950Z,12.20
2023-04-22T08:21:51.700Z,12.20
2023-04-22T08:24:19.923Z,12.20
2023-04-22T08:26:48.201Z,12.20
2023-04-22T08:29:18.006Z,12.20
2023-04-22T08:31:46.469Z,12.20
2023-04-22T08:34:14.807Z,12.20
2023-04-22T08:36:43.585Z,12.20
2023-04-22T08:39:12.647Z,12.20
2023-04-22T08:41:41.425Z,12.20
2023-04-22T08:44:09.827Z,12.20
2023-04-22T08:46:40.508Z,12.20
2023-04-22T08:49:09.696Z,12.20
2023-04-22T08:51:38.291Z,12.20
2023-04-22T08:54:06.981Z,12.20
2023-04-22T08:56:36.896Z,12.20
2023-04-22T08:59:05.646Z,12.20
2023-04-22T09:01:35.237Z,12.20
2023-04-22T09:04:05.346Z,12.20
2023-04-22T09:06:34.632Z,12.20
2023-04-22T09:09:03.368Z,12.20
2023-04-22T09:11:33.374Z,12.20
2023-04-22T09:14:02.527Z,12.20
2023-04-22T09:16:32.140Z,12.20
2023-04-22T09:19:01.402Z,12.20
2023-04-22T09:21:34.635Z,12.20
2023-04-22T09:24:03.476Z,12.30
2023-04-22T09:26:32.682Z,12.30
2023-04-22T09:29:01.231Z,12.20
2023-04-22T09:31:29.911Z,12.20
2023-04-22T09:34:00.942Z,12.20
2023-04-22T09:36:34.063Z,12.20
2023-04-22T09:39:05.117Z,12.20
2023-04-22T09:41:35.411Z,12.30
2023-04-22T09:44:05.000Z,12.30
2023-04-22T09:46:34.896Z,12.30
2023-04-22T09:49:03.704Z,12.20
2023-04-22T09:51:35.452Z,12.20
2023-04-22T09:54:06.406Z,12.20
2023-04-22T09:56:48.153Z,12.30
2023-04-22T09:59:16.923Z,12.30
2023-04-22T10:01:45.303Z,12.30
2023-04-22T10:04:15.478Z,12.20
2023-04-22T10:06:45.187Z,12.20
2023-04-22T10:09:13.780Z,12.20
2023-04-22T10:11:42.344Z,12.20
2023-04-22T10:14:14.019Z,12.20
2023-04-22T10:16:43.867Z,12.20
2023-04-22T10:19:16.652Z,12.20
2023-04-22T10:21:48.569Z,12.20
2023-04-22T10:24:18.317Z,12.20
2023-04-22T10:26:51.459Z,12.20
2023-04-22T10:29:22.601Z,12.20
2023-04-22T10:31:58.510Z,12.10
2023-04-22T10:34:26.889Z,12.20
2023-04-22T10:36:59.362Z,12.20
2023-04-22T10:39:28.839Z,12.20
2023-04-22T10:42:10.187Z,12.20
2023-04-22T10:44:50.215Z,12.20
2023-04-22T10:47:37.087Z,12.20
2023-04-22T10:50:26.585Z,12.20
2023-04-22T10:52:59.225Z,12.20
2023-04-22T10:55:48.138Z,12.20
2023-04-22T10:58:21.175Z,12.20
2023-04-22T11:00:54.532Z,12.20
2023-04-22T11:03:29.008Z,12.20
2023-04-22T11:06:17.072Z,12.20
2023-04-22T11:08:51.264Z,12.20
2023-04-22T11:11:20.134Z,12.30
2023-04-22T11:13:50.478Z,12.30
2023-04-22T11:16:23.542Z,12.20
2023-04-22T11:18:51.990Z,12.20
2023-04-22T11:21:23.011Z,12.20
2023-04-22T11:23:53.618Z,12.20
2023-04-22T11:26:34.789Z,12.00
2023-04-22T11:29:03.519Z,12.20
2023-04-22T11:31:31.891Z,12.20
2023-04-22T11:34:00.707Z,12.20
2023-04-22T11:36:29.076Z,12.20
2023-04-22T11:38:58.939Z,12.20
2023-04-22T11:41:30.128Z,12.20
2023-04-22T11:43:58.538Z,12.20
2023-04-22T11:46:31.418Z,12.20
2023-04-22T11:49:13.820Z,12.20
2023-04-22T11:51:54.642Z,12.20
2023-04-22T11:54:34.163Z,12.20
2023-04-22T11:57:04.388Z,12.20
2023-04-22T11:59:32.633Z,12.20
2023-04-22T12:02:01.178Z,12.20
2023-04-22T12:04:29.455Z,12.20
2023-04-22T12:06:58.056Z,12.20
2023-04-22T12:09:26.816Z,12.20
2023-04-22T12:11:56.927Z,12.20
2023-04-22T12:14:32.929Z,12.20
2023-04-22T12:17:05.572Z,12.20
2023-04-22T12:19:33.903Z,12.20
2023-04-22T12:22:02.210Z,12.20
2023-04-22T12:24:31.215Z,12.20
2023-04-22T12:27:01.305Z,12.20
2023-04-22T12:29:32.523Z,12.20
2023-04-22T12:32:01.171Z,12.20
2023-04-22T12:34:29.528Z,12.20
2023-04-22T12:36:58.081Z,12.20
2023-04-22T12:39:26.327Z,12.20
2023-04-22T12:41:54.592Z,12.20
2023-04-22T12:44:25.169Z,12.30
2023-04-22T12:46:56.407Z,12.20
2023-04-22T12:49:25.157Z,12.20
2023-04-22T12:51:53.705Z,12.20
2023-04-22T12:54:22.347Z,12.20
2023-04-22T12:56:50.622Z,12.30
2023-04-22T12:59:18.856Z,12.20
2023-04-22T13:01:48.582Z,12.20
2023-04-22T13:04:17.001Z,12.30
2023-04-22T13:06:45.343Z,12.20
2023-04-22T13:09:13.712Z,12.20
2023-04-22T13:11:42.159Z,12.20
2023-04-22T13:14:10.604Z,12.30
2023-04-22T13:16:38.986Z,12.20
2023-04-22T13:19:08.803Z,12.20
2023-04-22T13:21:37.200Z,12.20
2023-04-22T13:24:05.853Z,12.20
2023-04-22T13:26:36.405Z,12.20
2023-04-22T13:29:06.859Z,12.20
2023-04-22T13:31:38.936Z,12.20
2023-04-22T13:34:08.657Z,12.30
2023-04-22T13:36:37.028Z,12.20
2023-04-22T13:39:06.193Z,12.30
2023-04-22T13:41:34.478Z,12.30
2023-04-22T13:44:04.448Z,12.30
2023-04-22T13:46:32.766Z,12.20
2023-04-22T13:49:00.951Z,12.20
2023-04-22T13:51:32.194Z,12.20
2023-04-22T13:54:00.701Z,12.20
2023-04-22T13:56:28.990Z,12.20
2023-04-22T13:58:58.265Z,12.20
2023-04-22T14:01:26.907Z,12.20
2023-04-22T14:03:55.820Z,12.20
2023-04-22T14:06:24.211Z,12.30
2023-04-22T14:08:53.864Z,12.20
2023-04-22T14:11:22.072Z,12.20
2023-04-22T14:13:50.447Z,12.30
2023-04-22T14:16:19.836Z,12.30
2023-04-22T14:18:48.760Z,12.30
2023-04-22T14:21:17.124Z,12.30
2023-04-22T14:23:45.873Z,12.30
2023-04-22T14:26:15.473Z,12.30
2023-04-22T14:28:44.036Z,12.30
2023-04-22T14:31:15.077Z,12.30
2023-04-22T14:33:43.432Z,12.30
2023-04-22T14:36:11.754Z,12.30
2023-04-22T14:38:40.054Z,12.30
2023-04-22T14:41:08.266Z,12.30
2023-04-22T14:43:37.858Z,12.30
2023-04-22T14:46:06.409Z,12.30
2023-04-22T14:48:39.279Z,12.30
2023-04-22T14:51:07.654Z,12.30
2023-04-22T14:53:35.988Z,12.30
2023-04-22T14:56:04.391Z,12.30
2023-04-22T14:58:32.654Z,12.30
2023-04-22T15:01:02.388Z,12.30
2023-04-22T15:03:30.940Z,12.30
2023-04-22T15:06:02.090Z,12.40
2023-04-22T15:08:30.446Z,12.30
2023-04-22T15:10:59.866Z,12.30
2023-04-22T15:13:28.348Z,12.30
2023-04-22T15:15:56.624Z,12.30
2023-04-22T15:18:27.539Z,12.30
2023-04-22T15:20:55.890Z,12.30
2023-04-22T15:23:24.355Z,12.40
2023-04-22T15:25:52.761Z,12.30
2023-04-22T15:28:21.239Z,12.30
2023-04-22T15:30:50.164Z,12.30
2023-04-22T15:33:18.360Z,12.30
2023-04-22T15:35:50.047Z,12.30
2023-04-22T15:38:18.710Z,12.30
2023-04-22T15:40:47.009Z,12.30
2023-04-22T15:43:15.344Z,12.30
2023-04-22T15:45:43.535Z,12.30
2023-04-22T15:48:11.881Z,12.30
2023-04-22T15:50:40.829Z,12.30
2023-04-22T15:53:10.405Z,12.30
2023-04-22T15:55:38.667Z,12.30
2023-04-22T15:58:06.988Z,12.30
2023-04-22T16:00:35.668Z,12.30
2023-04-22T16:03:04.260Z,12.30
2023-04-22T16:05:34.732Z,12.30
2023-04-22T16:08:03.565Z,12.30
2023-04-22T16:10:33.192Z,12.30
2023-04-22T16:13:01.590Z,12.30
2023-04-22T16:15:29.839Z,12.40
2023-04-22T16:18:00.032Z,12.30
2023-04-22T16:20:28.407Z,12.30
2023-04-22T16:22:56.674Z,12.40
2023-04-22T16:25:25.014Z,12.30
2023-04-22T16:27:55.054Z,12.40
2023-04-22T16:30:23.666Z,12.30
2023-04-22T16:32:52.111Z,12.30
2023-04-22T16:35:20.597Z,12.30
2023-04-22T16:37:48.943Z,12.30
2023-04-22T16:40:17.235Z,12.30
2023-04-22T16:42:45.923Z,12.30
2023-04-22T16:45:16.692Z,12.30
2023-04-22T16:47:47.860Z,12.30
2023-04-22T16:50:17.192Z,12.30
2023-04-22T16:52:45.484Z,12.30
2023-04-22T16:55:13.859Z,12.30
2023-04-22T16:57:44.725Z,12.30
2023-04-22T17:00:15.720Z,12.40
2023-04-22T17:02:44.046Z,12.40
2023-04-22T17:05:15.414Z,12.40
2023-04-22T17:07:43.776Z,12.40
2023-04-22T17:10:12.392Z,12.40
2023-04-22T17:12:41.283Z,12.40
2023-04-22T17:15:10.591Z,12.40
2023-04-22T17:17:40.197Z,12.40
2023-04-22T17:20:09.322Z,12.40
2023-04-22T17:22:37.686Z,12.40
2023-04-22T17:25:06.698Z,12.40
2023-04-22T17:27:34.981Z,12.40
2023-04-22T17:30:03.344Z,12.50
2023-04-22T17:32:31.651Z,12.40
2023-04-22T17:35:02.711Z,12.50
2023-04-22T17:37:31.131Z,12.40
2023-04-22T17:39:59.616Z,12.50
2023-04-22T17:42:38.703Z,12.40
2023-04-22T17:45:12.467Z,12.50
2023-04-22T17:47:40.798Z,12.50
2023-04-22T17:50:11.221Z,12.50
2023-04-22T17:52:39.600Z,12.50
2023-04-22T17:55:09.173Z,12.40
2023-04-22T17:57:37.700Z,12.50
2023-04-22T18:00:08.333Z,12.40
2023-04-22T18:02:36.985Z,12.50
2023-04-22T18:05:05.826Z,12.60
2023-04-22T18:07:35.558Z,12.70
2023-04-22T18:10:03.893Z,12.70
2023-04-22T18:12:32.340Z,12.70
2023-04-22T18:15:00.941Z,12.80
2023-04-22T18:17:29.175Z,12.80
2023-04-22T18:20:09.742Z,12.80
2023-04-22T18:22:44.420Z,12.90
2023-04-22T18:25:12.820Z,12.90
2023-04-22T18:27:41.256Z,12.90
2023-04-22T18:30:10.251Z,13.00
2023-04-22T18:32:38.988Z,13.00
2023-04-22T18:35:08.415Z,12.90
2023-04-22T18:37:36.757Z,13.00
2023-04-22T18:40:08.176Z,13.00
2023-04-22T18:42:36.798Z,12.90
2023-04-22T18:45:06.669Z,13.00
2023-04-22T18:47:35.047Z,13.00
2023-04-22T18:50:03.392Z,13.10
2023-04-22T18:52:31.618Z,13.30
2023-04-22T18:54:59.921Z,13.10
2023-04-22T18:57:29.544Z,12.90
2023-04-22T18:59:57.878Z,12.90
2023-04-22T19:02:26.290Z,12.80
2023-04-22T19:04:55.063Z,12.80
2023-04-22T19:07:23.366Z,12.70
2023-04-22T19:09:51.643Z,12.70
2023-04-22T19:12:20.138Z,12.70
2023-04-22T19:14:49.676Z,12.70
2023-04-22T19:17:18.857Z,12.70
2023-04-22T19:19:47.230Z,12.60
2023-04-22T19:22:17.451Z,12.70
2023-04-22T19:24:46.417Z,12.70
2023-04-22T19:27:15.820Z,12.80
2023-04-22T19:29:51.199Z,12.80
2023-04-22T19:32:21.816Z,12.90
2023-04-22T19:34:50.944Z,12.90
2023-04-22T19:37:19.392Z,12.90
2023-04-22T19:39:47.622Z,12.90
2023-04-22T19:42:16.188Z,12.90
2023-04-22T19:44:46.797Z,13.00
2023-04-22T19:47:15.987Z,13.00
2023-04-22T19:49:48.814Z,13.00
2023-04-22T19:52:17.858Z,13.00
2023-04-22T19:54:49.796Z,13.00
2023-04-22T19:57:18.443Z,13.00
2023-04-22T19:59:47.193Z,13.00
2023-04-22T20:02:15.937Z,13.10
2023-04-22T20:04:46.212Z,13.10
2023-04-22T20:07:15.363Z,13.10
2023-04-22T20:09:46.619Z,13.20
2023-04-22T20:12:15.146Z,13.20
2023-04-22T20:14:45.019Z,13.20
2023-04-22T20:17:13.540Z,13.30
2023-04-22T20:19:42.178Z,13.30
2023-04-22T20:22:14.762Z,13.30
2023-04-22T20:24:43.956Z,13.30
2023-04-22T20:27:12.770Z,13.40
2023-04-22T20:29:41.553Z,13.40
2023-04-22T20:32:11.359Z,13.40
2023-04-22T20:34:40.287Z,13.50
2023-04-22T20:37:12.314Z,13.80
2023-04-22T20:39:44.573Z,14.00
2023-04-22T20:42:14.708Z,14.00
2023-04-22T20:44:43.355Z,13.90
2023-04-22T20:47:12.034Z,13.80
2023-04-22T20:49:41.940Z,13.70
2023-04-22T20:52:11.041Z,13.70
2023-04-22T20:54:41.247Z,13.60
2023-04-22T20:57:10.097Z,13.60
2023-04-22T20:59:38.345Z,13.60
2023-04-22T21:02:07.830Z,13.50
2023-04-22T21:04:36.668Z,13.50
2023-04-22T21:07:07.189Z,13.50
2023-04-22T21:09:36.200Z,13.40
2023-04-22T21:12:06.704Z,13.40
2023-04-22T21:14:35.414Z,13.40
2023-04-22T21:17:06.356Z,13.40
2023-04-22T21:19:35.319Z,13.30
2023-04-22T21:22:06.288Z,13.30
2023-04-22T21:24:36.079Z,13.30
2023-04-22T21:27:07.964Z,13.30
2023-04-22T21:29:38.106Z,13.30
2023-04-22T21:32:09.641Z,13.30
2023-04-22T21:34:38.941Z,13.30
2023-04-22T21:37:08.306Z,13.30
2023-04-22T21:39:36.704Z,13.30
2023-04-22T21:42:08.543Z,13.30
2023-04-22T21:44:37.736Z,13.30
2023-04-22T21:47:07.013Z,13.30
2023-04-22T21:49:35.875Z,13.70
2023-04-22T21:52:04.055Z,13.30
2023-04-22T21:54:32.340Z,13.30
2023-04-22T21:57:01.228Z,13.20
2023-04-22T21:59:31.486Z,13.20
2023-04-22T22:01:59.870Z,13.20
2023-04-22T22:04:28.517Z,13.20
2023-04-22T22:06:57.027Z,13.20
2023-04-22T22:09:26.542Z,13.20
2023-04-22T22:11:54.786Z,13.20
2023-04-22T22:14:23.054Z,13.20
2023-04-22T22:16:53.900Z,13.20
2023-04-22T22:19:22.464Z,13.20
2023-04-22T22:21:50.657Z,13.20
2023-04-22T22:24:19.021Z,13.20
2023-04-22T22:26:47.688Z,13.20
2023-04-22T22:29:16.223Z,13.20
2023-04-22T22:31:44.802Z,13.20
2023-04-22T22:34:14.437Z,13.20
2023-04-22T22:36:42.710Z,13.20
2023-04-22T22:39:14.406Z,13.20
2023-04-22T22:41:44.037Z,13.20
2023-04-22T22:44:12.481Z,13.20
2023-04-22T22:46:41.512Z,13.10
2023-04-22T22:49:10.392Z,13.10
2023-04-22T22:51:40.082Z,13.10
2023-04-22T22:54:08.503Z,13.10
2023-04-22T22:56:36.788Z,13.10
2023-04-22T22:59:05.019Z,13.10
2023-04-22T23:01:33.485Z,13.10
2023-04-22T23:04:02.377Z,13.10
2023-04-22T23:06:31.902Z,13.10
2023-04-22T23:09:01.615Z,13.10
2023-04-22T23:11:29.830Z,13.10
2023-04-22T23:13:58.079Z,13.10
2023-04-22T23:16:27.060Z,13.10
2023-04-22T23:18:57.520Z,13.10
2023-04-22T23:21:26.295Z,13.10
2023-04-22T23:23:56.018Z,13.10
2023-04-22T23:26:26.351Z,13.10
2023-04-22T23:28:55.446Z,13.10
2023-04-22T23:31:25.043Z,13.10
2023-04-22T23:33:55.118Z,13.10
2023-04-22T23:36:24.219Z,13.10
2023-04-22T23:38:52.436Z,13.10
2023-04-22T23:41:20.877Z,13.10
2023-04-22T23:43:50.408Z,13.10
2023-04-22T23:46:18.948Z,13.10
2023-04-22T23:48:48.048Z,13.10
2023-04-22T23:51:17.266Z,13.10
2023-04-22T23:53:46.621Z,13.10
2023-04-22T23:56:20.119Z,13.10
2023-04-22T23:58:50.929Z,13.10
